Decoded Metar for YKRY ( in ) (IATA:) | Meteo·Mobile Aviation Weather
aviador You're here:

YKRY Decoded Metar

in
Report Time2018-12-17 14:30:00
UTC Time2018-12-17 14:55:57
Flight Rules ifr IFR
Wind120° at 08 kt
W.Decomp.*RWY 16: 6.1 kt HW 5.1 kt LCW
RWY 05: 2.7 kt HW 7.5 kt RCW
W.Rank120° ranks 2
Current wind is above 120° avg. (7.2)
Visibility9999 m
Phenomena:N/A
Clouds:Broken 009 Hf
Overcast 013 Hf
Expected CloudBase > 800 ft AGL from Temp-Dew spread
Ceiling900 ft
Temp21°C
Dew Point19°C (88% RH)
QNH1011 hPa
Raw Report
SPECI YKRY 171430Z AUTO 12008KT 9999 // BKN009 OVC013 21/19 Q1011=

Extra information for YKRY:More info

Social comments